Latest Coastal Weather Observations for Kiama

IDN60701

Issued at 9:41 pm EDT Saturday 10 December 2016 (issued every 10 minutes, with the page automatically refreshed every 10 minutes)

About coastal observations | Map of coastal stations | Coastal observations for NSW | Marine services | Other Formats
Station Details ID: 068242 Name: KIAMA (BOMBO HEADLAND) Lat: -34.65 Lon: 150.86 Height: 15.5 m
Data from the previous 72 hours. | See also: Recent months at Kiama
Date/Time
EDT
Temp
°C
Wind Pressure Rain since
9am
mm
Weather Cloud Vis
km
Sea
Height
m
Swell
Dir  Spd
kts
Gust
kts
hPa Trend Height
m
Period
s
Dir
10/09:30pm 20.0 NNE 11 14 - - 0.0 - - - - - - -
10/09:00pm 19.9 NNE 11 16 - - 0.0 - - - - - - -
10/08:30pm 19.9 NNE 10 14 - - 0.0 - - - - - - -
10/08:00pm 19.9 NNE 10 13 - - 0.0 - - - - - - -
10/07:30pm 19.8 NE 11 14 - - 0.0 - - - - - - -
10/07:00pm 20.1 NE 11 15 - - 0.0 - - - - - - -
10/06:30pm 20.1 NNE 12 15 - - 0.0 - - - - - - -
10/06:00pm 20.1 NNE 11 16 - - 0.0 - - - - - - -
10/05:30pm 20.3 NNE 10 14 - - 0.0 - - - - - - -
10/05:00pm 20.4 NE 11 14 - - 0.0 - - - - - - -
10/04:30pm 20.6 NE 10 13 - - 0.0 - - - - - - -
10/04:00pm 20.4 NE 9 13 - - 0.0 - - - - - - -
10/03:30pm 20.1 NE 8 12 - - 0.0 - - - - - - -
10/03:00pm 21.0 NE 7 12 - - 0.0 - - - - - - -
10/02:30pm 21.3 NE 8 11 - - 0.0 - - - - - - -
10/02:00pm 21.4 NE 8 11 - - 0.0 - - - - - - -
10/01:30pm 22.2 NE 6 10 - - 0.0 - - - - - - -
10/01:00pm 21.6 ENE 6 9 - - 0.0 - - - - - - -
10/12:30pm 22.6 ENE 8 10 - - 0.0 - - - - - - -
10/12:00pm 22.8 ENE 7 11 - - 0.0 - - - - - - -
10/11:30am 21.8 E 6 9 - - 0.0 - - - - - - -
10/11:00am 21.6 E 6 8 - - 0.0 - - - - - - -
10/10:30am 21.0 ESE 5 7 - - 0.0 - - - - - - -
10/10:00am 20.6 ESE 5 6 - - 0.0 - - - - - - -
10/09:30am 20.1 SE 5 6 - - 0.0 - - - - - - -
10/09:00am 19.7 SE 4 6 - - 0.0 - - - - - - -
10/08:30am 19.3 S 3 4 - - 0.0 - - - - - - -
10/08:00am 18.7 S 3 5 - - 0.0 - - - - - - -
10/07:30am 17.6 SW 4 5 - - 0.0 - - - - - - -
10/07:00am 15.9 W 3 4 - - 0.0 - - - - - - -
10/06:30am 15.5 SW 1 1 - - 0.0 - - - - - - -
10/06:00am 15.6 CALM 0 0 - - 0.0 - - - - - - -
10/05:30am 16.5 SSW 3 4 - - 0.0 - - - - - - -
10/05:00am 16.0 W 3 3 - - 0.0 - - - - - - -
10/04:30am 16.9 SW 4 5 - - 0.0 - - - - - - -
10/04:00am 16.6 SW 3 4 - - 0.0 - - - - - - -
10/03:30am 16.3 WSW 3 5 - - 0.0 - - - - - - -
10/03:00am 16.3 WSW 3 4 - - 0.0 - - - - - - -
10/02:30am 16.4 W 3 3 - - 0.0 - - - - - - -
10/02:00am 17.1 SW 3 4 - - 0.0 - - - - - - -
10/01:30am 16.7 WSW 3 4 - - 0.0 - - - - - - -
10/01:00am 16.8 SW 4 5 - - 0.0 - - - - - - -
10/12:30am 17.1 WSW 3 4 - - 0.0 - - - - - - -
10/12:00am 17.3 WSW 4 5 - - 0.0 - - - - - - -
 
Date/Time
EDT
Temp
°C
Wind Pressure Rain since
9am
mm
Weather Cloud Vis
km
Sea
Height
m
Swell
Dir  Spd
kts
Gust
kts
hPa Trend Height
m
Period
s
Dir
09/11:30pm 18.1 S 8 11 - - 0.0 - - - - - - -
09/11:00pm 18.4 SSE 10 15 - - 0.0 - - - - - - -
09/10:30pm 18.5 SSE 10 13 - - 0.0 - - - - - - -
09/10:00pm 18.5 SSE 10 13 - - 0.0 - - - - - - -
09/09:30pm 18.5 SSE 11 14 - - 0.0 - - - - - - -
09/09:00pm 18.6 S 8 12 - - 0.0 - - - - - - -
09/08:30pm 18.5 SSE 12 14 - - 0.0 - - - - - - -
09/08:00pm 18.6 SSE 12 17 - - 0.0 - - - - - - -
09/07:30pm 18.9 SSE 14 17 - - 0.0 - - - - - - -
09/07:00pm 19.2 SSE 13 16 - - 0.0 - - - - - - -
09/06:30pm 19.4 SSE 17 20 - - 0.0 - - - - - - -
09/06:00pm 20.0 SSE 14 18 - - 0.0 - - - - - - -
09/05:30pm 20.1 SSE 14 16 - - 0.0 - - - - - - -
09/05:00pm 20.3 SSE 13 16 - - 0.0 - - - - - - -
09/04:30pm 20.7 SE 11 14 - - 0.0 - - - - - - -
09/04:00pm 20.7 SE 12 14 - - 0.0 - - - - - - -
09/03:30pm 20.6 SE 12 14 - - 0.0 - - - - - - -
09/03:00pm 20.9 SE 11 14 - - 0.0 - - - - - - -
09/02:30pm 20.9 SE 11 14 - - 0.0 - - - - - - -
09/02:00pm 20.4 SE 13 15 - - 0.0 - - - - - - -
09/01:30pm 19.5 SSE 15 18 - - 0.0 - - - - - - -
09/01:00pm 19.5 SSE 16 20 - - 0.0 - - - - - - -
09/12:30pm 19.6 SSE 15 19 - - 0.0 - - - - - - -
09/12:00pm 23.7 WSW 11 19 - - 0.0 - - - - - - -
09/11:30am 23.7 WSW 12 25 - - 0.0 - - - - - - -
09/11:00am 23.5 WSW 12 23 - - 0.0 - - - - - - -
09/10:30am 23.4 WSW 13 22 - - 0.0 - - - - - - -
09/10:00am 22.4 WSW 17 25 - - 0.0 - - - - - - -
09/09:30am 21.4 W 14 21 - - 0.0 - - - - - - -
09/09:00am 21.3 W 16 22 - - 0.0 - - - - - - -
09/08:30am 20.3 W 13 20 - - 0.0 - - - - - - -
09/08:00am 19.5 W 15 25 - - 0.0 - - - - - - -
09/07:42am 18.8 W 15 26 - - 0.0 - - - - - - -
09/07:30am 18.3 W 16 25 - - 0.0 - - - - - - -
09/07:00am 17.7 W 14 21 - - 0.0 - - - - - - -
09/06:30am 17.3 W 12 22 - - 0.0 - - - - - - -
09/06:00am 17.1 W 11 20 - - 0.0 - - - - - - -
09/05:30am 17.1 W 13 23 - - 0.0 - - - - - - -
09/05:06am 17.6 W 10 22 - - 0.0 - - - - - - -
09/05:00am 17.3 W 7 15 - - 0.0 - - - - - - -
09/04:30am 17.9 WSW 10 18 - - 0.0 - - - - - - -
09/04:00am 18.0 WSW 12 19 - - 0.0 - - - - - - -
09/03:30am 18.3 WSW 14 22 - - 0.0 - - - - - - -
09/03:00am 18.9 WSW 13 24 - - 0.0 - - - - - - -
09/02:30am 19.4 W 9 20 - - 0.0 - - - - - - -
09/02:19am 20.1 WSW 14 33 - - 0.0 - - - - - - -
09/02:00am 20.0 WSW 12 21 - - 0.0 - - - - - - -
09/01:30am 20.4 SW 17 32 - - 0.0 - - - - - - -
09/01:13am 20.9 WSW 16 33 - - 0.0 - - - - - - -
09/01:00am 21.3 WSW 13 19 - - 0.0 - - - - - - -
09/12:38am 22.2 WSW 13 32 - - 0.0 - - - - - - -
09/12:30am 22.4 WSW 8 16 - - 0.0 - - - - - - -
09/12:00am 23.5 W 11 21 - - 0.0 - - - - - - -
 
Date/Time
EDT
Temp
°C
Wind Pressure Rain since
9am
mm
Weather Cloud Vis
km
Sea
Height
m
Swell
Dir  Spd
kts
Gust
kts
hPa Trend Height
m
Period
s
Dir
08/11:30pm 24.1 W 11 22 - - 0.0 - - - - - - -
08/11:00pm 24.6 W 12 27 - - 0.0 - - - - - - -
08/10:30pm 25.9 W 6 12 - - 0.0 - - - - - - -
08/10:00pm 26.6 WNW 9 17 - - 0.0 - - - - - - -
08/09:30pm 26.3 W 6 16 - - 0.0 - - - - - - -
08/09:00pm 24.4 SSW 5 10 - - 0.0 - - - - - - -
08/08:30pm 23.0 WNW 4 8 - - 0.0 - - - - - - -
08/08:00pm 22.8 NNE 8 13 - - 0.0 - - - - - - -
08/07:30pm 22.6 N 11 16 - - 0.0 - - - - - - -
08/07:00pm 22.7 N 13 16 - - 0.0 - - - - - - -
08/06:30pm 23.4 N 12 19 - - 0.0 - - - - - - -
08/06:00pm 23.6 NNE 8 11 - - 0.0 - - - - - - -
08/05:30pm 23.4 NNE 9 16 - - 0.0 - - - - - - -
08/05:00pm 24.1 N 9 15 - - 0.0 - - - - - - -
08/04:30pm 23.9 N 9 13 - - 0.0 - - - - - - -
08/04:00pm 24.8 NNE 10 14 - - 0.0 - - - - - - -
08/03:30pm 23.1 N 10 15 - - 0.0 - - - - - - -
08/03:00pm 22.9 N 11 14 - - 0.0 - - - - - - -
08/02:30pm 24.1 NNE 12 16 - - 0.0 - - - - - - -
08/02:00pm 24.1 NNE 12 18 - - 0.0 - - - - - - -
08/01:30pm 24.4 NNE 12 17 - - 0.0 - - - - - - -
08/01:00pm 24.2 NNE 8 13 - - 0.0 - - - - - - -
08/12:30pm 23.2 NNE 14 21 - - 0.0 - - - - - - -
08/12:00pm 23.4 NNE 14 20 - - 0.0 - - - - - - -
08/11:30am 22.9 NNE 13 18 - - 0.0 - - - - - - -
08/11:00am 22.8 NNE 14 18 - - 0.0 - - - - - - -
08/10:30am 22.8 NNE 14 19 - - 0.0 - - - - - - -
08/10:00am 22.9 NNE 12 16 - - 0.0 - - - - - - -
08/09:30am 22.3 NNE 14 18 - - 0.0 - - - - - - -
08/09:00am 22.1 NNE 11 17 - - 0.0 - - - - - - -
08/08:30am 21.8 NNE 11 16 - - 0.0 - - - - - - -
08/08:00am 21.4 NNE 12 16 - - 0.0 - - - - - - -
08/07:30am 21.2 N 11 15 - - 0.0 - - - - - - -
08/07:00am 20.7 N 12 17 - - 0.0 - - - - - - -
08/06:30am 20.3 N 9 13 - - 0.0 - - - - - - -
08/06:00am 19.9 NNW 6 8 - - 0.0 - - - - - - -
08/05:30am 20.3 N 8 12 - - 0.0 - - - - - - -
08/05:00am 20.6 N 8 14 - - 0.0 - - - - - - -
08/04:30am 20.7 N 9 12 - - 0.0 - - - - - - -
08/04:00am 20.8 N 10 14 - - 0.0 - - - - - - -
08/03:30am 20.9 N 12 16 - - 0.0 - - - - - - -
08/03:00am 20.9 N 12 17 - - 0.0 - - - - - - -
08/02:30am 20.9 N 14 17 - - 0.0 - - - - - - -
08/02:00am 20.9 N 12 17 - - 0.0 - - - - - - -
08/01:30am 20.9 NNE 12 16 - - 0.0 - - - - - - -
08/01:00am 20.9 NNE 11 17 - - 0.0 - - - - - - -
08/12:30am 20.9 NNE 14 19 - - 0.0 - - - - - - -
08/12:00am 20.9 NNE 15 21 - - 0.0 - - - - - - -
 
Date/Time
EDT
Temp
°C
Wind Pressure Rain since
9am
mm
Weather Cloud Vis
km
Sea
Height
m
Swell
Dir  Spd
kts
Gust
kts
hPa Trend Height
m
Period
s
Dir
07/11:30pm 20.9 NNE 14 20 - - 0.0 - - - - - - -
07/11:00pm 20.9 NNE 13 18 - - 0.0 - - - - - - -
07/10:30pm 21.0 NNE 12 16 - - 0.0 - - - - - - -
07/10:00pm 21.0 NNE 12 17 - - 0.0 - - - - - - -

Other Formats:

Comma delimited format used in spreadsheet applications
http://www.bom.gov.au/fwo/IDN60701/IDN60701.95749.axf

JavaScript Object Notation format (JSON) in row-major order
http://www.bom.gov.au/fwo/IDN60701/IDN60701.95749.json